createdAt,value
2023-04-22T00:02:34.957Z,29.50
2023-04-22T00:05:36.847Z,28.50
2023-04-22T00:08:38.512Z,25.00
2023-04-22T00:11:40.195Z,26.65
2023-04-22T00:14:43.340Z,21.33
2023-04-22T00:17:45.044Z,32.75
2023-04-22T00:20:46.676Z,26.83
2023-04-22T00:23:48.529Z,28.65
2023-04-22T00:26:50.193Z,33.70
2023-04-22T00:29:53.214Z,22.80
2023-04-22T00:32:55.047Z,24.25
2023-04-22T00:35:56.900Z,23.73
2023-04-22T00:38:58.583Z,22.42
2023-04-22T00:42:00.533Z,27.77
2023-04-22T00:45:04.869Z,25.63
2023-04-22T00:48:07.507Z,26.15
2023-04-22T00:51:09.270Z,24.02
2023-04-22T00:54:10.913Z,27.35
2023-04-22T00:57:12.682Z,22.98
2023-04-22T01:00:16.493Z,25.65
2023-04-22T01:03:19.478Z,27.33
2023-04-22T01:06:22.571Z,26.60
2023-04-22T01:09:24.471Z,31.65
2023-04-22T01:12:26.164Z,24.70
2023-04-22T01:15:29.346Z,21.00
2023-04-22T01:18:31.973Z,25.02
2023-04-22T01:21:34.851Z,23.35
2023-04-22T01:24:37.961Z,22.98
2023-04-22T01:27:40.751Z,24.73
2023-04-22T01:30:42.816Z,22.70
2023-04-22T01:33:44.700Z,23.90
2023-04-22T01:36:46.378Z,27.30
2023-04-22T01:39:49.888Z,29.58
2023-04-22T01:42:51.733Z,22.92
2023-04-22T01:45:53.873Z,22.42
2023-04-22T01:48:55.618Z,26.00
2023-04-22T01:51:58.079Z,21.35
2023-04-22T01:55:02.124Z,24.83
2023-04-22T01:58:04.248Z,25.73
2023-04-22T02:01:06.282Z,22.73
2023-04-22T02:04:08.004Z,21.70
2023-04-22T02:07:09.788Z,27.02
2023-04-22T02:10:13.163Z,21.73
2023-04-22T02:13:15.125Z,27.70
2023-04-22T02:16:16.934Z,26.45
2023-04-22T02:19:18.642Z,20.90
2023-04-22T02:22:21.054Z,19.50
2023-04-22T02:25:24.126Z,20.90
2023-04-22T02:28:25.829Z,23.58
2023-04-22T02:31:27.553Z,19.40
2023-04-22T02:34:29.282Z,18.95
2023-04-22T02:37:30.999Z,15.95
2023-04-22T02:40:34.104Z,15.68
2023-04-22T02:43:35.793Z,15.07
2023-04-22T02:46:37.716Z,18.98
2023-04-22T02:49:39.685Z,11.85
2023-04-22T02:52:41.409Z,15.27
2023-04-22T02:55:44.406Z,15.90
2023-04-22T02:58:46.038Z,12.02
2023-04-22T03:01:47.698Z,13.75
2023-04-22T03:04:49.580Z,9.77
2023-04-22T03:07:51.458Z,11.63
2023-04-22T03:10:54.479Z,11.32
2023-04-22T03:13:56.145Z,12.00
2023-04-22T03:16:57.986Z,12.30
2023-04-22T03:20:00.057Z,14.95
2023-04-22T03:23:02.060Z,15.05
2023-04-22T03:26:05.350Z,16.17
2023-04-22T03:29:07.785Z,12.88
2023-04-22T03:32:09.589Z,13.77
2023-04-22T03:35:11.455Z,15.60
2023-04-22T03:38:13.064Z,14.00
2023-04-22T03:41:16.313Z,15.73
2023-04-22T03:44:19.877Z,16.63
2023-04-22T03:47:22.085Z,12.88
2023-04-22T03:50:23.884Z,20.50
2023-04-22T03:53:25.517Z,22.50
2023-04-22T03:56:28.640Z,15.07
2023-04-22T03:59:30.337Z,18.85
2023-04-22T04:02:32.092Z,15.63
2023-04-22T04:05:34.110Z,19.35
2023-04-22T04:08:35.828Z,22.08
2023-04-22T04:11:38.813Z,19.27
2023-04-22T04:14:40.743Z,22.30
2023-04-22T04:17:42.490Z,26.23
2023-04-22T04:20:44.406Z,27.58
2023-04-22T04:23:47.790Z,28.10
2023-04-22T04:26:50.886Z,31.08
2023-04-22T04:29:52.801Z,22.98
2023-04-22T04:32:54.552Z,25.95
2023-04-22T04:35:56.442Z,24.88
2023-04-22T04:38:58.311Z,23.98
2023-04-22T04:42:01.647Z,23.33
2023-04-22T04:45:03.656Z,20.33
2023-04-22T04:48:05.972Z,21.05
2023-04-22T04:51:07.859Z,18.88
2023-04-22T04:54:09.535Z,21.85
2023-04-22T04:57:12.665Z,19.67
2023-04-22T05:00:14.939Z,17.27
2023-04-22T05:03:16.974Z,15.95
2023-04-22T05:06:18.857Z,21.50
2023-04-22T05:09:20.512Z,14.52
2023-04-22T05:12:23.676Z,21.90
2023-04-22T05:15:25.322Z,22.73
2023-04-22T05:18:27.120Z,25.35
2023-04-22T05:21:28.828Z,26.60
2023-04-22T05:24:31.025Z,23.88
2023-04-22T05:27:34.406Z,24.88
2023-04-22T05:30:36.004Z,18.83
2023-04-22T05:33:37.843Z,15.73
2023-04-22T05:36:39.815Z,13.45
2023-04-22T05:39:41.733Z,12.90
2023-04-22T05:42:45.266Z,12.30
2023-04-22T05:45:47.236Z,9.55
2023-04-22T05:48:49.015Z,9.73
2023-04-22T05:51:50.644Z,8.18
2023-04-22T05:54:52.609Z,6.60
2023-04-22T05:57:55.626Z,5.63
2023-04-22T06:00:57.471Z,5.75
2023-04-22T06:03:59.802Z,6.45
2023-04-22T06:07:01.666Z,7.78
2023-04-22T06:10:05.463Z,5.97
2023-04-22T06:13:09.118Z,6.43
2023-04-22T06:16:10.804Z,9.70
2023-04-22T06:19:15.246Z,6.75
2023-04-22T06:22:17.024Z,5.05
2023-04-22T06:25:18.746Z,5.28
2023-04-22T06:28:22.150Z,6.07
2023-04-22T06:31:23.952Z,8.00
2023-04-22T06:34:26.190Z,8.90
2023-04-22T06:37:27.818Z,6.25
2023-04-22T06:40:29.822Z,5.32
2023-04-22T06:43:33.123Z,7.28
2023-04-22T06:46:34.807Z,6.00
2023-04-22T06:49:36.856Z,7.95
2023-04-22T06:52:38.744Z,5.78
2023-04-22T06:55:40.743Z,5.93
2023-04-22T06:58:43.827Z,6.03
2023-04-22T07:01:45.530Z,5.43
2023-04-22T07:04:47.496Z,7.43
2023-04-22T07:07:49.400Z,5.03
2023-04-22T07:10:51.143Z,7.72
2023-04-22T07:13:54.375Z,4.93
2023-04-22T07:16:56.265Z,5.93
2023-04-22T07:19:58.291Z,5.43
2023-04-22T07:23:00.041Z,8.68
2023-04-22T07:26:02.174Z,6.80
2023-04-22T07:29:05.225Z,6.28
2023-04-22T07:32:07.062Z,6.78
2023-04-22T07:35:09.051Z,8.27
2023-04-22T07:38:12.142Z,6.35
2023-04-22T07:41:15.096Z,5.45
2023-04-22T07:44:18.120Z,7.05
2023-04-22T07:47:19.790Z,5.88
2023-04-22T07:50:21.471Z,7.15
2023-04-22T07:53:23.458Z,6.45
2023-04-22T07:56:25.132Z,6.30
2023-04-22T07:59:28.162Z,6.97
2023-04-22T08:02:29.904Z,9.13
2023-04-22T08:05:32.053Z,6.60
2023-04-22T08:08:33.806Z,7.93
2023-04-22T08:11:35.490Z,6.88
2023-04-22T08:14:38.617Z,10.45
2023-04-22T08:17:40.289Z,7.00
2023-04-22T08:20:42.368Z,5.70
2023-04-22T08:23:43.977Z,7.40
2023-04-22T08:26:45.649Z,8.38
2023-04-22T08:29:48.675Z,6.35
2023-04-22T08:32:50.685Z,6.38
2023-04-22T08:35:53.054Z,5.43
2023-04-22T08:38:54.673Z,8.10
2023-04-22T08:41:56.996Z,6.93
2023-04-22T08:45:01.914Z,7.95
2023-04-22T08:48:04.416Z,8.77
2023-04-22T08:51:08.222Z,11.45
2023-04-22T08:54:10.706Z,7.72
2023-04-22T08:57:14.614Z,9.52
2023-04-22T09:00:18.917Z,7.68
2023-04-22T09:03:21.233Z,6.80
2023-04-22T09:06:23.706Z,8.65
2023-04-22T09:09:29.645Z,5.45
2023-04-22T09:12:31.354Z,6.45
2023-04-22T09:15:34.429Z,6.78
2023-04-22T09:18:40.786Z,6.45
2023-04-22T09:21:42.505Z,6.55
2023-04-22T09:24:49.050Z,8.50
2023-04-22T09:27:51.749Z,5.95
2023-04-22T09:30:54.789Z,7.45
2023-04-22T09:33:59.217Z,7.65
2023-04-22T09:37:00.866Z,6.72
2023-04-22T09:40:03.079Z,7.43
2023-04-22T09:43:07.085Z,6.53
2023-04-22T09:46:11.275Z,5.38
2023-04-22T09:49:16.176Z,5.00
2023-04-22T09:52:26.924Z,5.10
2023-04-22T09:55:30.988Z,7.85
2023-04-22T09:58:32.680Z,4.85
2023-04-22T10:01:39.561Z,4.90
2023-04-22T10:04:41.687Z,6.07
2023-04-22T10:07:44.589Z,8.85
2023-04-22T10:10:46.372Z,6.93
2023-04-22T10:13:48.095Z,4.85
2023-04-22T10:16:56.737Z,6.97
2023-04-22T10:20:00.603Z,8.82
2023-04-22T10:23:04.970Z,6.82
2023-04-22T10:26:06.659Z,5.80
2023-04-22T10:29:09.224Z,6.35
2023-04-22T10:32:28.141Z,5.93
2023-04-22T10:35:30.034Z,5.78
2023-04-22T10:38:34.244Z,8.55
2023-04-22T10:41:38.351Z,6.28
2023-04-22T10:44:48.060Z,8.68
2023-04-22T10:47:51.400Z,6.35
2023-04-22T10:57:02.029Z,6.80
2023-04-22T11:00:51.798Z,6.72
2023-04-22T11:04:19.858Z,5.93
2023-04-22T11:07:31.358Z,6.00
2023-04-22T11:10:38.863Z,7.10
2023-04-22T11:13:41.906Z,6.68
2023-04-22T11:16:46.717Z,7.63
2023-04-22T11:19:49.734Z,8.45
2023-04-22T11:22:53.008Z,5.35
2023-04-22T11:28:59.857Z,5.22
2023-04-22T11:32:03.400Z,4.78
2023-04-22T11:35:08.897Z,6.95
2023-04-22T11:38:10.507Z,9.30
2023-04-22T11:41:12.230Z,5.68
2023-04-22T11:44:14.846Z,4.93
2023-04-22T11:47:16.588Z,7.82
2023-04-22T11:50:22.326Z,4.57
2023-04-22T11:53:24.139Z,8.48
2023-04-22T11:56:26.197Z,6.47
2023-04-22T11:59:27.923Z,6.32
2023-04-22T12:02:29.716Z,6.43
2023-04-22T12:05:38.312Z,8.38
2023-04-22T12:08:40.469Z,6.07
2023-04-22T12:11:42.203Z,7.68
2023-04-22T12:14:45.728Z,8.23
2023-04-22T12:17:50.197Z,6.38
2023-04-22T12:20:53.281Z,9.35
2023-04-22T12:23:56.133Z,6.00
2023-04-22T12:26:57.853Z,8.25
2023-04-22T12:29:59.548Z,7.43
2023-04-22T12:33:01.255Z,6.15
2023-04-22T12:36:04.998Z,7.63
2023-04-22T12:39:06.691Z,8.20
2023-04-22T12:42:08.401Z,6.05
2023-04-22T12:45:10.450Z,6.45
2023-04-22T12:51:16.485Z,6.80
2023-04-22T12:54:18.950Z,5.50
2023-04-22T12:57:20.909Z,5.63
2023-04-22T13:00:23.138Z,8.13
2023-04-22T13:03:24.991Z,4.97
2023-04-22T13:06:28.311Z,7.03
2023-04-22T13:12:31.473Z,5.53
2023-04-22T13:15:33.168Z,7.32
2023-04-22T13:18:34.864Z,5.43
2023-04-22T13:21:37.870Z,7.22
2023-04-22T13:24:39.571Z,9.27
2023-04-22T13:27:41.744Z,5.30
2023-04-22T13:30:43.704Z,6.03
2023-04-22T13:33:45.533Z,5.38
2023-04-22T13:36:48.740Z,5.18
2023-04-22T13:54:59.144Z,7.75
2023-04-22T13:58:03.976Z,9.90
2023-04-22T14:01:07.178Z,5.05
2023-04-22T14:07:12.048Z,5.53
2023-04-22T14:10:16.015Z,5.30
2023-04-22T14:13:18.061Z,7.70
2023-04-22T14:16:19.928Z,5.93
2023-04-22T14:19:21.612Z,5.95
2023-04-22T14:22:24.566Z,5.50
2023-04-22T14:25:26.693Z,7.55
2023-04-22T14:28:28.608Z,5.28
2023-04-22T14:31:30.443Z,9.48
2023-04-22T14:34:32.074Z,5.88
2023-04-22T14:37:35.171Z,7.40
2023-04-22T14:40:37.425Z,5.45
2023-04-22T14:43:39.148Z,5.47
2023-04-22T14:46:41.029Z,4.47
2023-04-22T14:49:43.079Z,6.18
2023-04-22T14:52:46.149Z,5.60
2023-04-22T14:55:47.984Z,5.47
2023-04-22T14:58:49.679Z,7.85
2023-04-22T15:01:52.100Z,8.05
2023-04-22T15:04:54.329Z,6.47
2023-04-22T15:07:57.439Z,7.28
2023-04-22T15:10:59.092Z,5.18
2023-04-22T15:14:00.797Z,6.40
2023-04-22T15:17:03.011Z,8.15
2023-04-22T15:20:07.211Z,5.93
2023-04-22T15:23:11.807Z,5.38
2023-04-22T15:26:13.744Z,5.45
2023-04-22T15:29:15.859Z,7.55
2023-04-22T15:32:17.484Z,8.32
2023-04-22T15:35:19.750Z,5.38
2023-04-22T15:38:22.784Z,7.47
2023-04-22T15:41:25.631Z,5.28
2023-04-22T15:44:28.329Z,6.80
2023-04-22T15:47:30.232Z,6.07
2023-04-22T15:50:32.078Z,9.75
2023-04-22T15:53:35.067Z,6.55
2023-04-22T15:56:36.810Z,7.75
2023-04-22T15:59:39.030Z,4.78
2023-04-22T16:02:41.650Z,4.53
2023-04-22T16:05:43.633Z,7.07
2023-04-22T16:08:46.686Z,6.53
2023-04-22T16:11:48.379Z,6.50
2023-04-22T16:14:50.028Z,6.45
2023-04-22T16:17:51.852Z,8.10
2023-04-22T16:20:53.630Z,6.78
2023-04-22T16:23:56.672Z,6.38
2023-04-22T16:26:58.391Z,8.40
2023-04-22T16:30:00.261Z,4.97
2023-04-22T16:33:02.090Z,7.60
2023-04-22T16:36:04.908Z,7.65
2023-04-22T16:39:08.287Z,10.27
2023-04-22T16:42:10.129Z,14.38
2023-04-22T16:45:11.868Z,10.27
2023-04-22T16:48:13.828Z,12.25
2023-04-22T16:51:15.811Z,8.93
2023-04-22T16:54:19.136Z,10.45
2023-04-22T17:03:24.207Z,12.30
2023-04-22T17:06:26.242Z,6.32
2023-04-22T17:09:29.340Z,12.52
2023-04-22T17:12:31.353Z,6.80
2023-04-22T17:15:33.377Z,6.57
2023-04-22T17:18:35.211Z,6.60
2023-04-22T17:21:37.408Z,8.88
2023-04-22T17:24:40.945Z,7.63
2023-04-22T17:27:42.990Z,8.60
2023-04-22T17:30:45.088Z,9.95
2023-04-22T17:33:47.648Z,10.60
2023-04-22T17:36:49.546Z,9.25
2023-04-22T17:39:52.939Z,8.95
2023-04-22T17:45:56.130Z,11.75
2023-04-22T17:48:58.348Z,7.82
2023-04-22T17:52:00.457Z,13.77
2023-04-22T17:55:03.789Z,8.32
2023-04-22T17:58:06.030Z,15.10
2023-04-22T18:01:08.316Z,33.10
2023-04-22T18:04:10.186Z,20.77
2023-04-22T18:07:12.350Z,18.45
2023-04-22T18:10:16.238Z,15.23
2023-04-22T18:13:18.262Z,11.73
2023-04-22T18:16:20.277Z,20.05
2023-04-22T18:19:22.041Z,10.68
2023-04-22T18:22:24.395Z,12.05
2023-04-22T18:25:27.985Z,12.57
2023-04-22T18:28:29.637Z,9.15
2023-04-22T18:31:31.734Z,18.52
2023-04-22T18:34:33.948Z,23.00
2023-04-22T18:37:36.109Z,17.90
2023-04-22T18:40:39.640Z,19.67
2023-04-22T18:46:43.368Z,14.93
2023-04-22T18:49:45.299Z,19.77
2023-04-22T18:52:47.110Z,17.38
2023-04-22T18:55:50.527Z,18.95
2023-04-22T18:58:52.468Z,16.08
2023-04-22T19:01:54.774Z,16.23
2023-04-22T19:04:56.987Z,17.40
2023-04-22T19:07:59.319Z,14.85
2023-04-22T19:11:03.307Z,13.68
2023-04-22T19:14:06.079Z,20.55
2023-04-22T19:17:08.049Z,21.27
2023-04-22T19:20:11.132Z,21.88
2023-04-22T19:23:17.477Z,24.42
2023-04-22T19:26:20.637Z,24.63
2023-04-22T19:29:22.615Z,21.85
2023-04-22T19:32:24.386Z,20.73
2023-04-22T19:35:26.406Z,18.50
2023-04-22T19:38:28.167Z,14.05
2023-04-22T19:41:31.979Z,14.70
2023-04-22T19:44:34.254Z,15.60
2023-04-22T19:47:37.269Z,16.23
2023-04-22T19:50:42.053Z,15.40
2023-04-22T19:53:44.605Z,14.23
2023-04-22T19:56:48.643Z,18.60
2023-04-22T19:59:50.970Z,16.95
2023-04-22T20:02:53.163Z,17.40
2023-04-22T20:05:56.187Z,12.95
2023-04-22T20:08:58.479Z,16.15
2023-04-22T20:12:03.018Z,17.45
2023-04-22T20:15:06.102Z,13.82
2023-04-22T20:18:08.649Z,15.50
2023-04-22T20:21:10.869Z,11.48
2023-04-22T20:24:13.228Z,11.35
2023-04-22T20:27:16.640Z,13.40
2023-04-22T20:30:18.535Z,13.43
2023-04-22T20:33:22.515Z,14.90
2023-04-22T20:36:24.800Z,16.10
2023-04-22T20:39:27.790Z,13.50
2023-04-22T20:42:31.193Z,12.95
2023-04-22T20:45:33.370Z,17.70
2023-04-22T20:48:35.141Z,12.60
2023-04-22T20:51:37.083Z,11.98
2023-04-22T20:54:39.882Z,10.93
2023-04-22T20:57:43.547Z,12.20
2023-04-22T21:00:45.761Z,10.57
2023-04-22T21:03:51.697Z,12.10
2023-04-22T21:06:55.246Z,9.82
2023-04-22T21:09:57.732Z,12.70
2023-04-22T21:13:00.929Z,14.13
2023-04-22T21:16:04.973Z,13.02
2023-04-22T21:19:07.635Z,11.90
2023-04-22T21:22:10.211Z,12.55
2023-04-22T21:25:20.452Z,16.23
2023-04-22T21:28:23.978Z,14.70
2023-04-22T21:31:25.720Z,14.18
2023-04-22T21:34:27.424Z,15.93
2023-04-22T21:37:29.411Z,15.15
2023-04-22T21:40:31.269Z,13.48
2023-04-22T21:43:34.342Z,12.13
2023-04-22T21:46:36.249Z,12.82
2023-04-22T21:49:37.931Z,13.35
2023-04-22T21:52:39.700Z,12.68
2023-04-22T21:55:42.067Z,13.13
2023-04-22T21:58:45.344Z,14.85
2023-04-22T22:01:47.121Z,9.88
2023-04-22T22:04:49.097Z,11.88
2023-04-22T22:07:50.841Z,14.00
2023-04-22T22:10:52.678Z,13.25
2023-04-22T22:13:55.738Z,10.88
2023-04-22T22:16:57.620Z,10.55
2023-04-22T22:19:59.322Z,11.20
2023-04-22T22:23:00.927Z,11.18
2023-04-22T22:26:02.636Z,14.50
2023-04-22T22:29:06.426Z,9.38
2023-04-22T22:32:08.386Z,11.13
2023-04-22T22:35:10.810Z,11.85
2023-04-22T22:38:12.601Z,11.52
2023-04-22T22:41:14.327Z,9.35
2023-04-22T22:44:17.773Z,12.00
2023-04-22T22:47:19.454Z,12.32
2023-04-22T22:50:21.407Z,10.98
2023-04-22T22:53:23.094Z,11.65
2023-04-22T22:56:25.109Z,11.73
2023-04-22T22:59:28.141Z,12.23
2023-04-22T23:02:30.176Z,12.38
2023-04-22T23:05:31.942Z,14.52
2023-04-22T23:08:33.856Z,18.15
2023-04-22T23:11:35.686Z,20.42
2023-04-22T23:14:38.938Z,18.40
2023-04-22T23:17:41.118Z,17.75
2023-04-22T23:20:43.521Z,16.15
2023-04-22T23:23:45.334Z,16.52
2023-04-22T23:26:47.573Z,13.98
2023-04-22T23:29:51.322Z,15.20
2023-04-22T23:36:00.728Z,14.98
2023-04-22T23:39:03.385Z,18.17
2023-04-22T23:42:05.140Z,14.25
2023-04-22T23:45:09.913Z,16.67
2023-04-22T23:48:11.617Z,23.00
2023-04-22T23:51:13.392Z,20.98
2023-04-22T23:54:15.258Z,20.13
2023-04-22T23:57:17.472Z,19.45
